sensor_id;sensor_type;location;lat;lon;timestamp;temperature;humidity
7163;DHT22;3623;47.098;15.446;2022-12-29T00:01:33;0.90;99.90
7163;DHT22;3623;47.098;15.446;2022-12-29T00:04:00;0.50;99.90
7163;DHT22;3623;47.098;15.446;2022-12-29T00:06:29;0.50;99.90
7163;DHT22;3623;47.098;15.446;2022-12-29T00:08:56;0.80;99.90
7163;DHT22;3623;47.098;15.446;2022-12-29T00:11:25;0.50;99.90
7163;DHT22;3623;47.098;15.446;2022-12-29T00:13:53;0.50;99.90
7163;DHT22;3623;47.098;15.446;2022-12-29T00:16:40;0.50;99.90
7163;DHT22;3623;47.098;15.446;2022-12-29T00:19:07;0.50;99.90
7163;DHT22;3623;47.098;15.446;2022-12-29T00:21:56;0.50;99.90
7163;DHT22;3623;47.098;15.446;2022-12-29T00:24:43;0.50;99.90
7163;DHT22;3623;47.098;15.446;2022-12-29T00:27:28;0.50;99.90
7163;DHT22;3623;47.098;15.446;2022-12-29T00:30:17;0.40;99.90
7163;DHT22;3623;47.098;15.446;2022-12-29T00:33:09;0.40;99.90
7163;DHT22;3623;47.098;15.446;2022-12-29T00:35:58;0.40;99.90
7163;DHT22;3623;47.098;15.446;2022-12-29T00:38:29;0.40;99.90
7163;DHT22;3623;47.098;15.446;2022-12-29T00:41:17;0.30;99.90
7163;DHT22;3623;47.098;15.446;2022-12-29T00:44:02;0.30;99.90
7163;DHT22;3623;47.098;15.446;2022-12-29T00:46:32;0.30;99.90
7163;DHT22;3623;47.098;15.446;2022-12-29T00:49:00;0.30;99.90
7163;DHT22;3623;47.098;15.446;2022-12-29T00:51:44;0.40;99.90
7163;DHT22;3623;47.098;15.446;2022-12-29T00:54:13;0.60;99.90
7163;DHT22;3623;47.098;15.446;2022-12-29T00:56:40;0.30;99.90
7163;DHT22;3623;47.098;15.446;2022-12-29T00:59:10;0.30;99.90
7163;DHT22;3623;47.098;15.446;2022-12-29T01:01:38;0.30;99.90
7163;DHT22;3623;47.098;15.446;2022-12-29T01:04:05;0.60;99.90
7163;DHT22;3623;47.098;15.446;2022-12-29T01:06:33;0.50;99.90
7163;DHT22;3623;47.098;15.446;2022-12-29T01:09:01;0.20;99.90
7163;DHT22;3623;47.098;15.446;2022-12-29T01:11:47;0.20;99.90
7163;DHT22;3623;47.098;15.446;2022-12-29T01:14:15;0.20;99.90
7163;DHT22;3623;47.098;15.446;2022-12-29T01:16:42;0.20;99.90
7163;DHT22;3623;47.098;15.446;2022-12-29T01:19:09;0.20;99.90
7163;DHT22;3623;47.098;15.446;2022-12-29T01:21:36;0.30;99.90
7163;DHT22;3623;47.098;15.446;2022-12-29T01:24:03;0.40;99.90
7163;DHT22;3623;47.098;15.446;2022-12-29T01:26:31;0.10;99.90
7163;DHT22;3623;47.098;15.446;2022-12-29T01:28:59;0.10;99.90
7163;DHT22;3623;47.098;15.446;2022-12-29T01:31:26;0.10;99.90
7163;DHT22;3623;47.098;15.446;2022-12-29T01:33:53;0.10;99.90
7163;DHT22;3623;47.098;15.446;2022-12-29T01:36:21;0.10;99.90
7163;DHT22;3623;47.098;15.446;2022-12-29T01:38:48;0.40;99.90
7163;DHT22;3623;47.098;15.446;2022-12-29T01:41:15;0.10;99.90
7163;DHT22;3623;47.098;15.446;2022-12-29T01:43:44;0.10;99.90
7163;DHT22;3623;47.098;15.446;2022-12-29T01:46:21;0.20;99.90
7163;DHT22;3623;47.098;15.446;2022-12-29T01:48:53;0.30;99.90
7163;DHT22;3623;47.098;15.446;2022-12-29T01:51:23;-0.10;99.90
7163;DHT22;3623;47.098;15.446;2022-12-29T01:53:52;0.00;99.90
7163;DHT22;3623;47.098;15.446;2022-12-29T01:56:21;0.00;99.90
7163;DHT22;3623;47.098;15.446;2022-12-29T01:58:50;0.20;99.90
7163;DHT22;3623;47.098;15.446;2022-12-29T02:01:21;-0.10;99.90
7163;DHT22;3623;47.098;15.446;2022-12-29T02:03:50;-0.10;99.90
7163;DHT22;3623;47.098;15.446;2022-12-29T02:06:21;-0.20;99.90
7163;DHT22;3623;47.098;15.446;2022-12-29T02:08:50;-0.10;99.90
7163;DHT22;3623;47.098;15.446;2022-12-29T02:11:19;-0.10;99.90
7163;DHT22;3623;47.098;15.446;2022-12-29T02:13:47;0.00;99.90
7163;DHT22;3623;47.098;15.446;2022-12-29T02:16:33;0.10;99.90
7163;DHT22;3623;47.098;15.446;2022-12-29T02:22:24;0.00;99.90
7163;DHT22;3623;47.098;15.446;2022-12-29T02:25:26;0.00;99.90
7163;DHT22;3623;47.098;15.446;2022-12-29T02:31:15;0.00;99.90
7163;DHT22;3623;47.098;15.446;2022-12-29T02:33:54;0.00;99.90
7163;DHT22;3623;47.098;15.446;2022-12-29T02:36:28;0.00;99.90
7163;DHT22;3623;47.098;15.446;2022-12-29T02:39:04;0.00;99.90
7163;DHT22;3623;47.098;15.446;2022-12-29T02:41:33;0.10;99.90
7163;DHT22;3623;47.098;15.446;2022-12-29T02:44:07;0.20;99.90
7163;DHT22;3623;47.098;15.446;2022-12-29T02:46:43;0.20;99.90
7163;DHT22;3623;47.098;15.446;2022-12-29T02:49:16;0.20;99.90
7163;DHT22;3623;47.098;15.446;2022-12-29T02:51:51;0.20;99.90
7163;DHT22;3623;47.098;15.446;2022-12-29T02:54:20;0.20;99.90
7163;DHT22;3623;47.098;15.446;2022-12-29T02:57:07;0.20;99.90
7163;DHT22;3623;47.098;15.446;2022-12-29T02:59:35;0.20;99.90
7163;DHT22;3623;47.098;15.446;2022-12-29T03:02:19;0.20;99.90
7163;DHT22;3623;47.098;15.446;2022-12-29T03:05:17;0.10;99.90
7163;DHT22;3623;47.098;15.446;2022-12-29T03:07:56;0.10;99.90
7163;DHT22;3623;47.098;15.446;2022-12-29T03:10:34;0.00;99.90
7163;DHT22;3623;47.098;15.446;2022-12-29T03:13:06;0.00;99.90
7163;DHT22;3623;47.098;15.446;2022-12-29T03:15:59;0.00;99.90
7163;DHT22;3623;47.098;15.446;2022-12-29T03:18:37;0.20;99.90
7163;DHT22;3623;47.098;15.446;2022-12-29T03:21:10;0.00;99.90
7163;DHT22;3623;47.098;15.446;2022-12-29T03:23:41;0.10;99.90
7163;DHT22;3623;47.098;15.446;2022-12-29T03:26:11;0.00;99.90
7163;DHT22;3623;47.098;15.446;2022-12-29T03:28:41;0.00;99.90
7163;DHT22;3623;47.098;15.446;2022-12-29T03:31:12;-0.10;99.90
7163;DHT22;3623;47.098;15.446;2022-12-29T03:33:42;-0.10;99.90
7163;DHT22;3623;47.098;15.446;2022-12-29T03:36:12;-0.10;99.90
7163;DHT22;3623;47.098;15.446;2022-12-29T03:38:46;0.20;99.90
7163;DHT22;3623;47.098;15.446;2022-12-29T03:41:17;-0.10;99.90
7163;DHT22;3623;47.098;15.446;2022-12-29T03:43:45;-0.10;99.90
7163;DHT22;3623;47.098;15.446;2022-12-29T03:46:12;0.10;99.90
7163;DHT22;3623;47.098;15.446;2022-12-29T03:48:41;0.10;99.90
7163;DHT22;3623;47.098;15.446;2022-12-29T03:51:08;-0.10;99.90
7163;DHT22;3623;47.098;15.446;2022-12-29T03:53:36;-0.10;99.90
7163;DHT22;3623;47.098;15.446;2022-12-29T03:56:04;-0.10;99.90
7163;DHT22;3623;47.098;15.446;2022-12-29T03:58:31;-0.20;99.90
7163;DHT22;3623;47.098;15.446;2022-12-29T04:00:58;0.10;99.90
7163;DHT22;3623;47.098;15.446;2022-12-29T04:03:25;-0.20;99.90
7163;DHT22;3623;47.098;15.446;2022-12-29T04:05:53;-0.20;99.90
7163;DHT22;3623;47.098;15.446;2022-12-29T04:08:20;-0.10;99.90
7163;DHT22;3623;47.098;15.446;2022-12-29T04:10:48;0.10;99.90
7163;DHT22;3623;47.098;15.446;2022-12-29T04:13:15;0.00;99.90
7163;DHT22;3623;47.098;15.446;2022-12-29T04:15:43;0.30;99.90
7163;DHT22;3623;47.098;15.446;2022-12-29T04:18:11;0.30;99.90
7163;DHT22;3623;47.098;15.446;2022-12-29T04:20:38;0.10;99.90
7163;DHT22;3623;47.098;15.446;2022-12-29T04:23:24;0.10;99.90
7163;DHT22;3623;47.098;15.446;2022-12-29T04:25:51;0.20;99.90
7163;DHT22;3623;47.098;15.446;2022-12-29T04:28:18;0.20;99.90
7163;DHT22;3623;47.098;15.446;2022-12-29T04:30:46;0.20;99.90
7163;DHT22;3623;47.098;15.446;2022-12-29T04:33:13;0.50;99.90
7163;DHT22;3623;47.098;15.446;2022-12-29T04:35:41;0.30;99.90
7163;DHT22;3623;47.098;15.446;2022-12-29T04:38:09;0.30;99.90
7163;DHT22;3623;47.098;15.446;2022-12-29T04:40:40;0.30;99.90
7163;DHT22;3623;47.098;15.446;2022-12-29T04:43:07;0.20;99.90
7163;DHT22;3623;47.098;15.446;2022-12-29T04:45:35;0.50;99.90
7163;DHT22;3623;47.098;15.446;2022-12-29T04:48:03;0.20;99.90
7163;DHT22;3623;47.098;15.446;2022-12-29T04:50:34;0.10;99.90
7163;DHT22;3623;47.098;15.446;2022-12-29T04:53:01;0.10;99.90
7163;DHT22;3623;47.098;15.446;2022-12-29T04:55:29;0.20;99.90
7163;DHT22;3623;47.098;15.446;2022-12-29T04:57:57;0.20;99.90
7163;DHT22;3623;47.098;15.446;2022-12-29T05:00:24;0.20;99.90
7163;DHT22;3623;47.098;15.446;2022-12-29T05:02:52;0.00;99.90
7163;DHT22;3623;47.098;15.446;2022-12-29T05:05:19;0.10;99.90
7163;DHT22;3623;47.098;15.446;2022-12-29T05:07:46;0.20;99.90
7163;DHT22;3623;47.098;15.446;2022-12-29T05:10:13;0.30;99.90
7163;DHT22;3623;47.098;15.446;2022-12-29T05:12:41;0.20;99.90
7163;DHT22;3623;47.098;15.446;2022-12-29T05:15:10;0.00;99.90
7163;DHT22;3623;47.098;15.446;2022-12-29T05:17:37;0.00;99.90
7163;DHT22;3623;47.098;15.446;2022-12-29T05:20:06;-0.10;99.90
7163;DHT22;3623;47.098;15.446;2022-12-29T05:22:33;-0.10;99.90
7163;DHT22;3623;47.098;15.446;2022-12-29T05:25:00;-0.10;99.90
7163;DHT22;3623;47.098;15.446;2022-12-29T05:27:28;-0.10;99.90
7163;DHT22;3623;47.098;15.446;2022-12-29T05:29:55;-0.50;99.90
7163;DHT22;3623;47.098;15.446;2022-12-29T05:32:23;-0.10;99.90
7163;DHT22;3623;47.098;15.446;2022-12-29T05:34:52;-0.20;99.90
7163;DHT22;3623;47.098;15.446;2022-12-29T05:37:19;-0.30;99.90
7163;DHT22;3623;47.098;15.446;2022-12-29T05:39:46;0.00;99.90
7163;DHT22;3623;47.098;15.446;2022-12-29T05:42:13;-0.10;99.90
7163;DHT22;3623;47.098;15.446;2022-12-29T05:44:40;-0.20;99.90
7163;DHT22;3623;47.098;15.446;2022-12-29T05:47:08;-0.20;99.90
7163;DHT22;3623;47.098;15.446;2022-12-29T05:49:37;-0.20;99.90
7163;DHT22;3623;47.098;15.446;2022-12-29T05:52:07;-0.20;99.90
7163;DHT22;3623;47.098;15.446;2022-12-29T05:54:34;-0.10;99.90
7163;DHT22;3623;47.098;15.446;2022-12-29T05:57:01;0.00;99.90
7163;DHT22;3623;47.098;15.446;2022-12-29T05:59:28;-0.10;99.90
7163;DHT22;3623;47.098;15.446;2022-12-29T06:01:55;0.10;99.90
7163;DHT22;3623;47.098;15.446;2022-12-29T06:04:22;0.00;99.90
7163;DHT22;3623;47.098;15.446;2022-12-29T06:06:50;0.00;99.90
7163;DHT22;3623;47.098;15.446;2022-12-29T06:09:17;0.00;99.90
7163;DHT22;3623;47.098;15.446;2022-12-29T06:11:45;0.00;99.90
7163;DHT22;3623;47.098;15.446;2022-12-29T06:14:12;0.10;99.90
7163;DHT22;3623;47.098;15.446;2022-12-29T06:16:39;0.00;99.90
7163;DHT22;3623;47.098;15.446;2022-12-29T06:19:07;0.20;99.90
7163;DHT22;3623;47.098;15.446;2022-12-29T06:21:35;0.00;99.90
7163;DHT22;3623;47.098;15.446;2022-12-29T06:24:05;0.00;99.90
7163;DHT22;3623;47.098;15.446;2022-12-29T06:26:32;0.00;99.90
7163;DHT22;3623;47.098;15.446;2022-12-29T06:28:59;0.00;99.90
7163;DHT22;3623;47.098;15.446;2022-12-29T06:31:27;0.00;99.90
7163;DHT22;3623;47.098;15.446;2022-12-29T06:33:55;0.00;99.90
7163;DHT22;3623;47.098;15.446;2022-12-29T06:36:30;0.00;99.90
7163;DHT22;3623;47.098;15.446;2022-12-29T06:39:00;0.10;99.90
7163;DHT22;3623;47.098;15.446;2022-12-29T06:41:31;0.10;99.90
7163;DHT22;3623;47.098;15.446;2022-12-29T06:43:59;0.10;99.90
7163;DHT22;3623;47.098;15.446;2022-12-29T06:46:26;0.30;99.90
7163;DHT22;3623;47.098;15.446;2022-12-29T06:48:54;0.00;99.90
7163;DHT22;3623;47.098;15.446;2022-12-29T06:51:21;0.00;99.90
7163;DHT22;3623;47.098;15.446;2022-12-29T06:53:48;0.10;99.90
7163;DHT22;3623;47.098;15.446;2022-12-29T06:56:15;0.20;99.90
7163;DHT22;3623;47.098;15.446;2022-12-29T06:58:44;0.50;99.90
7163;DHT22;3623;47.098;15.446;2022-12-29T07:01:11;0.30;99.90
7163;DHT22;3623;47.098;15.446;2022-12-29T07:03:42;0.30;99.90
7163;DHT22;3623;47.098;15.446;2022-12-29T07:06:11;0.50;99.90
7163;DHT22;3623;47.098;15.446;2022-12-29T07:08:39;0.70;99.90
7163;DHT22;3623;47.098;15.446;2022-12-29T07:11:07;0.40;99.90
7163;DHT22;3623;47.098;15.446;2022-12-29T07:13:34;0.40;99.90
7163;DHT22;3623;47.098;15.446;2022-12-29T07:16:07;0.50;99.90
7163;DHT22;3623;47.098;15.446;2022-12-29T07:18:35;0.50;99.90
7163;DHT22;3623;47.098;15.446;2022-12-29T07:21:03;0.60;99.90
7163;DHT22;3623;47.098;15.446;2022-12-29T07:23:31;0.60;99.90
7163;DHT22;3623;47.098;15.446;2022-12-29T07:26:00;0.70;99.90
7163;DHT22;3623;47.098;15.446;2022-12-29T07:28:27;0.70;99.90
7163;DHT22;3623;47.098;15.446;2022-12-29T07:30:55;0.80;99.90
7163;DHT22;3623;47.098;15.446;2022-12-29T07:33:27;1.10;99.90
7163;DHT22;3623;47.098;15.446;2022-12-29T07:35:55;0.80;99.90
7163;DHT22;3623;47.098;15.446;2022-12-29T07:38:26;0.70;99.90
7163;DHT22;3623;47.098;15.446;2022-12-29T07:40:57;0.70;99.90
7163;DHT22;3623;47.098;15.446;2022-12-29T07:43:25;0.80;99.90
7163;DHT22;3623;47.098;15.446;2022-12-29T07:45:53;0.80;99.90
7163;DHT22;3623;47.098;15.446;2022-12-29T07:48:21;0.80;99.90
7163;DHT22;3623;47.098;15.446;2022-12-29T07:50:50;0.80;99.90
7163;DHT22;3623;47.098;15.446;2022-12-29T07:53:21;0.80;99.90
7163;DHT22;3623;47.098;15.446;2022-12-29T07:55:49;0.90;99.90
7163;DHT22;3623;47.098;15.446;2022-12-29T07:58:16;0.90;99.90
7163;DHT22;3623;47.098;15.446;2022-12-29T08:00:44;1.00;99.90
7163;DHT22;3623;47.098;15.446;2022-12-29T08:03:11;1.00;99.90
7163;DHT22;3623;47.098;15.446;2022-12-29T08:05:38;1.30;99.90
7163;DHT22;3623;47.098;15.446;2022-12-29T08:08:06;1.20;99.90
7163;DHT22;3623;47.098;15.446;2022-12-29T08:10:34;1.10;99.90
7163;DHT22;3623;47.098;15.446;2022-12-29T08:13:01;1.10;99.90
7163;DHT22;3623;47.098;15.446;2022-12-29T08:15:28;1.10;99.90
7163;DHT22;3623;47.098;15.446;2022-12-29T08:17:55;1.10;99.90
7163;DHT22;3623;47.098;15.446;2022-12-29T08:20:22;1.20;99.90
7163;DHT22;3623;47.098;15.446;2022-12-29T08:22:49;1.30;99.90
7163;DHT22;3623;47.098;15.446;2022-12-29T08:25:18;1.30;99.90
7163;DHT22;3623;47.098;15.446;2022-12-29T08:27:46;1.50;99.90
7163;DHT22;3623;47.098;15.446;2022-12-29T08:30:13;1.40;99.90
7163;DHT22;3623;47.098;15.446;2022-12-29T08:32:40;1.60;99.90
7163;DHT22;3623;47.098;15.446;2022-12-29T08:35:08;1.70;99.90
7163;DHT22;3623;47.098;15.446;2022-12-29T08:37:35;1.80;99.90
7163;DHT22;3623;47.098;15.446;2022-12-29T08:40:03;1.80;99.90
7163;DHT22;3623;47.098;15.446;2022-12-29T08:42:32;2.10;99.90
7163;DHT22;3623;47.098;15.446;2022-12-29T08:45:00;2.40;99.90
7163;DHT22;3623;47.098;15.446;2022-12-29T08:47:27;2.80;99.90
7163;DHT22;3623;47.098;15.446;2022-12-29T08:49:54;2.90;99.90
7163;DHT22;3623;47.098;15.446;2022-12-29T08:52:22;3.00;99.90
7163;DHT22;3623;47.098;15.446;2022-12-29T08:54:49;3.20;99.90
7163;DHT22;3623;47.098;15.446;2022-12-29T08:57:16;3.40;99.90
7163;DHT22;3623;47.098;15.446;2022-12-29T08:59:45;3.50;99.90
7163;DHT22;3623;47.098;15.446;2022-12-29T09:02:12;3.60;99.90
7163;DHT22;3623;47.098;15.446;2022-12-29T09:04:39;3.70;99.90
7163;DHT22;3623;47.098;15.446;2022-12-29T09:07:06;3.90;99.90
7163;DHT22;3623;47.098;15.446;2022-12-29T09:09:33;3.90;99.90
7163;DHT22;3623;47.098;15.446;2022-12-29T09:12:00;4.10;99.90
7163;DHT22;3623;47.098;15.446;2022-12-29T09:14:27;4.20;99.90
7163;DHT22;3623;47.098;15.446;2022-12-29T09:16:56;4.10;99.90
7163;DHT22;3623;47.098;15.446;2022-12-29T09:19:40;4.00;99.90
7163;DHT22;3623;47.098;15.446;2022-12-29T09:22:07;3.90;99.90
7163;DHT22;3623;47.098;15.446;2022-12-29T09:24:34;4.00;99.90
7163;DHT22;3623;47.098;15.446;2022-12-29T09:27:03;4.00;99.90
7163;DHT22;3623;47.098;15.446;2022-12-29T09:29:30;4.20;99.90
7163;DHT22;3623;47.098;15.446;2022-12-29T09:31:58;4.30;99.90
7163;DHT22;3623;47.098;15.446;2022-12-29T09:34:26;4.50;99.90
7163;DHT22;3623;47.098;15.446;2022-12-29T09:36:53;4.70;99.90
7163;DHT22;3623;47.098;15.446;2022-12-29T09:39:21;5.10;99.90
7163;DHT22;3623;47.098;15.446;2022-12-29T09:41:56;5.10;99.90
7163;DHT22;3623;47.098;15.446;2022-12-29T09:44:36;5.00;99.90
7163;DHT22;3623;47.098;15.446;2022-12-29T09:47:11;5.00;99.90
7163;DHT22;3623;47.098;15.446;2022-12-29T09:49:42;5.00;99.90
7163;DHT22;3623;47.098;15.446;2022-12-29T09:52:15;5.00;99.90
7163;DHT22;3623;47.098;15.446;2022-12-29T09:54:50;5.10;99.90
7163;DHT22;3623;47.098;15.446;2022-12-29T09:57:22;5.20;99.90
7163;DHT22;3623;47.098;15.446;2022-12-29T09:59:52;5.30;99.90
7163;DHT22;3623;47.098;15.446;2022-12-29T10:02:32;5.50;99.90
7163;DHT22;3623;47.098;15.446;2022-12-29T10:05:01;5.60;99.90
7163;DHT22;3623;47.098;15.446;2022-12-29T10:07:36;5.60;99.90
7163;DHT22;3623;47.098;15.446;2022-12-29T10:10:16;5.70;99.90
7163;DHT22;3623;47.098;15.446;2022-12-29T10:12:56;5.90;99.90
7163;DHT22;3623;47.098;15.446;2022-12-29T10:15:38;6.00;99.90
7163;DHT22;3623;47.098;15.446;2022-12-29T10:18:18;6.30;99.90
7163;DHT22;3623;47.098;15.446;2022-12-29T10:20:51;6.60;99.90
7163;DHT22;3623;47.098;15.446;2022-12-29T10:23:26;6.90;99.90
7163;DHT22;3623;47.098;15.446;2022-12-29T10:25:55;7.10;99.90
7163;DHT22;3623;47.098;15.446;2022-12-29T10:28:24;7.30;99.90
7163;DHT22;3623;47.098;15.446;2022-12-29T10:30:53;7.70;99.90
7163;DHT22;3623;47.098;15.446;2022-12-29T10:33:26;8.00;99.90
7163;DHT22;3623;47.098;15.446;2022-12-29T10:35:56;8.20;99.90
7163;DHT22;3623;47.098;15.446;2022-12-29T10:38:27;8.50;99.90
7163;DHT22;3623;47.098;15.446;2022-12-29T10:41:00;8.70;99.90
7163;DHT22;3623;47.098;15.446;2022-12-29T10:43:31;9.10;99.90
7163;DHT22;3623;47.098;15.446;2022-12-29T10:46:04;9.50;99.90
7163;DHT22;3623;47.098;15.446;2022-12-29T10:48:34;10.10;99.90
7163;DHT22;3623;47.098;15.446;2022-12-29T10:51:02;10.80;99.90
7163;DHT22;3623;47.098;15.446;2022-12-29T10:53:37;11.30;99.90
7163;DHT22;3623;47.098;15.446;2022-12-29T10:56:14;11.70;99.90
7163;DHT22;3623;47.098;15.446;2022-12-29T10:58:43;11.80;99.90
7163;DHT22;3623;47.098;15.446;2022-12-29T11:01:12;11.80;99.90
7163;DHT22;3623;47.098;15.446;2022-12-29T11:03:57;12.40;99.90
7163;DHT22;3623;47.098;15.446;2022-12-29T11:06:28;13.20;99.90
7163;DHT22;3623;47.098;15.446;2022-12-29T11:08:57;13.50;99.90
7163;DHT22;3623;47.098;15.446;2022-12-29T11:11:27;13.10;99.90
7163;DHT22;3623;47.098;15.446;2022-12-29T11:14:01;12.60;99.90
7163;DHT22;3623;47.098;15.446;2022-12-29T11:16:30;12.90;99.90
7163;DHT22;3623;47.098;15.446;2022-12-29T11:18:59;13.90;99.90
7163;DHT22;3623;47.098;15.446;2022-12-29T11:21:32;14.30;99.90
7163;DHT22;3623;47.098;15.446;2022-12-29T11:24:01;13.90;99.90
7163;DHT22;3623;47.098;15.446;2022-12-29T11:26:29;14.60;99.90
7163;DHT22;3623;47.098;15.446;2022-12-29T11:29:20;14.90;99.90
7163;DHT22;3623;47.098;15.446;2022-12-29T11:31:50;14.20;99.90
7163;DHT22;3623;47.098;15.446;2022-12-29T11:34:21;14.40;99.40
7163;DHT22;3623;47.098;15.446;2022-12-29T11:36:49;14.60;99.20
7163;DHT22;3623;47.098;15.446;2022-12-29T11:39:28;15.20;99.10
7163;DHT22;3623;47.098;15.446;2022-12-29T11:41:56;15.90;97.60
7163;DHT22;3623;47.098;15.446;2022-12-29T11:44:25;16.10;98.20
7163;DHT22;3623;47.098;15.446;2022-12-29T11:46:53;16.70;96.90
7163;DHT22;3623;47.098;15.446;2022-12-29T11:49:24;15.60;96.20
7163;DHT22;3623;47.098;15.446;2022-12-29T11:51:53;15.40;95.80
7163;DHT22;3623;47.098;15.446;2022-12-29T11:54:25;15.60;96.70
7163;DHT22;3623;47.098;15.446;2022-12-29T11:56:54;16.00;96.50
7163;DHT22;3623;47.098;15.446;2022-12-29T12:05:09;17.70;93.80
7163;DHT22;3623;47.098;15.446;2022-12-29T12:07:42;18.20;93.30
7163;DHT22;3623;47.098;15.446;2022-12-29T12:10:17;18.30;92.60
7163;DHT22;3623;47.098;15.446;2022-12-29T12:12:49;17.40;92.60
7163;DHT22;3623;47.098;15.446;2022-12-29T12:15:21;17.40;93.50
7163;DHT22;3623;47.098;15.446;2022-12-29T12:17:53;17.30;92.90
7163;DHT22;3623;47.098;15.446;2022-12-29T12:20:28;17.30;91.90
7163;DHT22;3623;47.098;15.446;2022-12-29T12:23:07;18.70;92.10
7163;DHT22;3623;47.098;15.446;2022-12-29T12:25:45;18.50;89.90
7163;DHT22;3623;47.098;15.446;2022-12-29T12:28:19;18.60;90.70
7163;DHT22;3623;47.098;15.446;2022-12-29T12:30:50;18.60;89.50
7163;DHT22;3623;47.098;15.446;2022-12-29T12:33:24;17.50;88.80
7163;DHT22;3623;47.098;15.446;2022-12-29T12:36:04;18.40;90.60
7163;DHT22;3623;47.098;15.446;2022-12-29T12:38:42;18.30;86.90
7163;DHT22;3623;47.098;15.446;2022-12-29T12:41:19;17.00;88.20
7163;DHT22;3623;47.098;15.446;2022-12-29T12:43:50;15.60;90.40
7163;DHT22;3623;47.098;15.446;2022-12-29T12:49:45;15.00;91.20
7163;DHT22;3623;47.098;15.446;2022-12-29T12:52:25;13.90;91.50
7163;DHT22;3623;47.098;15.446;2022-12-29T12:55:12;13.50;92.10
7163;DHT22;3623;47.098;15.446;2022-12-29T12:57:52;13.20;92.20
7163;DHT22;3623;47.098;15.446;2022-12-29T13:00:21;12.70;92.50
7163;DHT22;3623;47.098;15.446;2022-12-29T13:03:04;12.70;92.60
7163;DHT22;3623;47.098;15.446;2022-12-29T13:06:05;12.90;93.40
7163;DHT22;3623;47.098;15.446;2022-12-29T13:08:49;13.50;93.30
7163;DHT22;3623;47.098;15.446;2022-12-29T13:11:28;13.60;93.00
7163;DHT22;3623;47.098;15.446;2022-12-29T13:14:11;13.30;94.50
7163;DHT22;3623;47.098;15.446;2022-12-29T13:16:47;13.10;93.90
7163;DHT22;3623;47.098;15.446;2022-12-29T13:19:23;12.80;95.00
7163;DHT22;3623;47.098;15.446;2022-12-29T13:22:00;13.20;95.00
7163;DHT22;3623;47.098;15.446;2022-12-29T13:24:36;13.70;94.30
7163;DHT22;3623;47.098;15.446;2022-12-29T13:27:15;14.00;94.10
7163;DHT22;3623;47.098;15.446;2022-12-29T13:29:47;14.20;93.70
7163;DHT22;3623;47.098;15.446;2022-12-29T13:32:27;14.00;93.80
7163;DHT22;3623;47.098;15.446;2022-12-29T13:35:07;13.60;93.60
7163;DHT22;3623;47.098;15.446;2022-12-29T13:37:46;13.30;94.20
7163;DHT22;3623;47.098;15.446;2022-12-29T13:40:17;13.00;94.40
7163;DHT22;3623;47.098;15.446;2022-12-29T13:42:46;12.50;94.50
7163;DHT22;3623;47.098;15.446;2022-12-29T13:45:16;12.30;94.60
7163;DHT22;3623;47.098;15.446;2022-12-29T13:47:49;11.90;94.80
7163;DHT22;3623;47.098;15.446;2022-12-29T13:50:22;11.70;95.00
7163;DHT22;3623;47.098;15.446;2022-12-29T13:52:54;11.40;95.20
7163;DHT22;3623;47.098;15.446;2022-12-29T13:55:27;11.20;95.60
7163;DHT22;3623;47.098;15.446;2022-12-29T13:58:05;11.10;95.50
7163;DHT22;3623;47.098;15.446;2022-12-29T14:00:42;10.90;96.00
7163;DHT22;3623;47.098;15.446;2022-12-29T14:03:27;10.60;96.30
7163;DHT22;3623;47.098;15.446;2022-12-29T14:06:12;10.50;96.70
7163;DHT22;3623;47.098;15.446;2022-12-29T14:08:40;10.30;96.80
7163;DHT22;3623;47.098;15.446;2022-12-29T14:11:10;10.20;97.00
7163;DHT22;3623;47.098;15.446;2022-12-29T14:13:39;10.10;97.20
7163;DHT22;3623;47.098;15.446;2022-12-29T14:16:09;10.00;97.30
7163;DHT22;3623;47.098;15.446;2022-12-29T14:18:42;9.90;97.90
7163;DHT22;3623;47.098;15.446;2022-12-29T14:21:18;9.80;97.70
7163;DHT22;3623;47.098;15.446;2022-12-29T14:23:50;9.80;97.80
7163;DHT22;3623;47.098;15.446;2022-12-29T14:26:35;9.60;98.00
7163;DHT22;3623;47.098;15.446;2022-12-29T14:32:36;9.40;98.20
7163;DHT22;3623;47.098;15.446;2022-12-29T14:35:37;9.30;98.50
7163;DHT22;3623;47.098;15.446;2022-12-29T14:38:18;9.10;99.00
7163;DHT22;3623;47.098;15.446;2022-12-29T14:40:47;9.10;99.10
7163;DHT22;3623;47.098;15.446;2022-12-29T14:43:21;9.00;99.40
7163;DHT22;3623;47.098;15.446;2022-12-29T14:45:57;8.90;99.50
7163;DHT22;3623;47.098;15.446;2022-12-29T14:48:38;8.80;99.60
7163;DHT22;3623;47.098;15.446;2022-12-29T14:51:20;8.80;99.60
7163;DHT22;3623;47.098;15.446;2022-12-29T14:53:49;8.60;99.60
7163;DHT22;3623;47.098;15.446;2022-12-29T14:56:19;8.50;99.80
7163;DHT22;3623;47.098;15.446;2022-12-29T14:58:50;8.30;99.90
7163;DHT22;3623;47.098;15.446;2022-12-29T15:01:38;8.20;99.90
7163;DHT22;3623;47.098;15.446;2022-12-29T15:04:15;8.10;99.90
7163;DHT22;3623;47.098;15.446;2022-12-29T15:06:44;8.00;99.90
7163;DHT22;3623;47.098;15.446;2022-12-29T15:09:22;7.90;99.90
7163;DHT22;3623;47.098;15.446;2022-12-29T15:11:52;7.70;99.90
7163;DHT22;3623;47.098;15.446;2022-12-29T15:14:36;7.70;99.90
7163;DHT22;3623;47.098;15.446;2022-12-29T15:17:11;7.60;99.90
7163;DHT22;3623;47.098;15.446;2022-12-29T15:19:48;7.50;99.90
7163;DHT22;3623;47.098;15.446;2022-12-29T15:22:15;7.50;99.90
7163;DHT22;3623;47.098;15.446;2022-12-29T15:24:43;7.40;99.90
7163;DHT22;3623;47.098;15.446;2022-12-29T15:27:13;7.40;99.90
7163;DHT22;3623;47.098;15.446;2022-12-29T15:29:44;7.40;99.90
7163;DHT22;3623;47.098;15.446;2022-12-29T15:32:20;7.30;99.90
7163;DHT22;3623;47.098;15.446;2022-12-29T15:34:49;7.30;99.90
7163;DHT22;3623;47.098;15.446;2022-12-29T15:37:22;7.20;99.90
7163;DHT22;3623;47.098;15.446;2022-12-29T15:39:50;7.00;99.90
7163;DHT22;3623;47.098;15.446;2022-12-29T15:42:33;6.90;99.90
7163;DHT22;3623;47.098;15.446;2022-12-29T15:45:11;6.80;99.90
7163;DHT22;3623;47.098;15.446;2022-12-29T15:47:40;6.70;99.90
7163;DHT22;3623;47.098;15.446;2022-12-29T15:50:14;6.60;99.90
7163;DHT22;3623;47.098;15.446;2022-12-29T15:52:42;6.50;99.90
7163;DHT22;3623;47.098;15.446;2022-12-29T15:55:19;6.40;99.90
7163;DHT22;3623;47.098;15.446;2022-12-29T15:57:47;6.40;99.90
7163;DHT22;3623;47.098;15.446;2022-12-29T16:00:27;6.30;99.90
7163;DHT22;3623;47.098;15.446;2022-12-29T16:02:55;6.20;99.90
7163;DHT22;3623;47.098;15.446;2022-12-29T16:05:23;6.10;99.90
7163;DHT22;3623;47.098;15.446;2022-12-29T16:07:55;6.10;99.90
7163;DHT22;3623;47.098;15.446;2022-12-29T16:10:26;6.10;99.90
7163;DHT22;3623;47.098;15.446;2022-12-29T16:13:01;6.10;99.90
7163;DHT22;3623;47.098;15.446;2022-12-29T16:15:30;6.00;99.90
7163;DHT22;3623;47.098;15.446;2022-12-29T16:17:57;6.00;99.90
7163;DHT22;3623;47.098;15.446;2022-12-29T16:20:34;5.90;99.90
7163;DHT22;3623;47.098;15.446;2022-12-29T16:23:02;5.90;99.90
7163;DHT22;3623;47.098;15.446;2022-12-29T16:25:31;6.00;99.90
7163;DHT22;3623;47.098;15.446;2022-12-29T16:28:01;5.90;99.90
7163;DHT22;3623;47.098;15.446;2022-12-29T16:30:32;5.90;99.90
7163;DHT22;3623;47.098;15.446;2022-12-29T16:33:02;5.80;99.90
7163;DHT22;3623;47.098;15.446;2022-12-29T16:35:38;5.80;99.90
7163;DHT22;3623;47.098;15.446;2022-12-29T16:38:14;5.70;99.90
7163;DHT22;3623;47.098;15.446;2022-12-29T16:40:50;5.70;99.90
7163;DHT22;3623;47.098;15.446;2022-12-29T16:43:23;5.70;99.90
7163;DHT22;3623;47.098;15.446;2022-12-29T16:48:57;5.70;99.90